Time;durP1;ratioP1;P1;durP2;ratioP2;P2;SDS_P1;SDS_P2;PMS_P1;PMS_P2;Temp;Humidity;BMP_temperature;BMP_pressure;BME280_temperature;BME280_humidity;BME280_pressure;Samples;Min_cycle;Max_cycle;Signal;HPM_P1;HPM_P2
2022/12/30 05:22:40;;;;;;;1.08;0.98;;;;;;;4.25;100.00;100204.56;5089243;28;20332;-67
2022/12/30 05:27:50;;;;;;;0.68;0.50;;;;;;;4.28;100.00;100191.09;5088856;28;20047;-67
2022/12/30 05:30:16;;;;;;;2.60;1.00;;;;;;;4.20;100.00;100194.41;5089113;28;20032;-67
2022/12/30 05:32:41;;;;;;;3.35;1.30;;;;;;;4.15;100.00;100203.66;5089447;28;20059;-67
2022/12/30 05:35:07;;;;;;;0.60;0.57;;;;;;;4.04;100.00;100202.81;5089133;28;20178;-67
2022/12/30 05:37:32;;;;;;;1.30;0.93;;;;;;;4.01;100.00;100205.69;5088554;28;20067;-67
2022/12/30 05:39:57;;;;;;;2.05;1.13;;;;;;;3.96;100.00;100201.78;5088954;28;20046;-66
2022/12/30 05:42:23;;;;;;;0.68;0.68;;;;;;;3.89;100.00;100201.47;5088810;28;20036;-65
2022/12/30 05:44:48;;;;;;;1.05;0.82;;;;;;;3.86;100.00;100204.38;5088869;28;20032;-66
2022/12/30 05:47:14;;;;;;;0.68;0.68;;;;;;;3.77;100.00;100205.97;5088314;28;20044;-66
2022/12/30 05:49:39;;;;;;;3.15;0.82;;;;;;;3.76;100.00;100211.38;5087576;28;20086;-67
2022/12/30 05:52:04;;;;;;;1.50;0.90;;;;;;;3.74;100.00;100205.44;5088623;28;20056;-64
2022/12/30 05:54:30;;;;;;;1.45;0.88;;;;;;;3.79;100.00;100216.41;5088626;28;20535;-65
2022/12/30 05:56:55;;;;;;;1.42;0.75;;;;;;;3.85;100.00;100223.81;5088298;28;20444;-67
2022/12/30 05:59:20;;;;;;;1.85;1.05;;;;;;;3.75;100.00;100218.47;5088373;28;20037;-67
2022/12/30 06:01:46;;;;;;;3.03;1.55;;;;;;;3.67;100.00;100231.47;5088440;28;20041;-67
2022/12/30 06:04:11;;;;;;;1.63;0.82;;;;;;;3.64;100.00;100228.22;5088376;28;20062;-67
2022/12/30 06:06:37;;;;;;;1.20;1.02;;;;;;;3.59;100.00;100238.34;5088380;28;20043;-66
2022/12/30 06:09:02;;;;;;;3.10;1.20;;;;;;;3.51;100.00;100242.44;5087821;28;20078;-66
2022/12/30 06:11:28;;;;;;;3.25;1.20;;;;;;;3.47;100.00;100233.13;5088142;28;20048;-66
2022/12/30 06:13:53;;;;;;;0.75;0.70;;;;;;;3.37;100.00;100242.75;5088349;28;20119;-66
2022/12/30 06:16:18;;;;;;;1.65;0.80;;;;;;;3.33;100.00;100237.88;5088099;28;20039;-66
2022/12/30 06:18:44;;;;;;;3.15;1.48;;;;;;;3.31;100.00;100224.81;5087859;28;20028;-66
2022/12/30 06:21:09;;;;;;;1.80;1.05;;;;;;;3.31;100.00;100222.19;5088078;28;20036;-67
2022/12/30 06:23:35;;;;;;;2.30;1.15;;;;;;;3.15;100.00;100219.16;5088144;28;20044;-66
2022/12/30 06:26:00;;;;;;;3.55;1.20;;;;;;;3.31;100.00;100219.56;5087853;28;20123;-66
2022/12/30 06:28:27;;;;;;;1.65;0.82;;;;;;;3.34;100.00;100235.13;5087836;28;20040;-66
2022/12/30 06:30:53;;;;;;;4.90;2.60;;;;;;;3.35;100.00;100234.16;5088081;28;20040;-66
2022/12/30 06:33:19;;;;;;;3.00;1.20;;;;;;;3.26;100.00;100234.91;5078475;28;20032;-66
2022/12/30 06:35:46;;;;;;;1.48;0.82;;;;;;;3.23;100.00;100228.09;5074341;28;20111;-67
2022/12/30 06:38:12;;;;;;;3.13;1.60;;;;;;;3.21;100.00;100223.94;5074065;28;20076;-67
2022/12/30 06:40:37;;;;;;;2.28;1.05;;;;;;;3.15;100.00;100227.91;5074268;28;20056;-66
2022/12/30 06:43:03;;;;;;;6.00;2.53;;;;;;;3.12;100.00;100230.75;5074266;28;20494;-66
2022/12/30 06:45:28;;;;;;;1.13;0.85;;;;;;;3.05;100.00;100239.28;5074222;28;20562;-66
2022/12/30 06:47:54;;;;;;;2.03;1.35;;;;;;;3.06;100.00;100233.06;5074098;28;20503;-66
2022/12/30 06:50:19;;;;;;;1.85;1.02;;;;;;;3.17;100.00;100222.50;5074184;28;20040;-66
2022/12/30 06:52:45;;;;;;;1.38;1.20;;;;;;;2.99;100.00;100236.19;5074122;28;20049;-66
2022/12/30 06:55:11;;;;;;;2.00;1.15;;;;;;;2.76;100.00;100229.34;5073877;28;20139;-67
2022/12/30 06:57:36;;;;;;;2.10;1.33;;;;;;;2.84;100.00;100233.97;5073596;28;20512;-65
2022/12/30 07:00:06;;;;;;;6.75;1.92;;;;;;;2.89;100.00;100237.09;5073756;28;20055;-66
2022/12/30 07:02:32;;;;;;;4.40;1.40;;;;;;;2.82;100.00;100233.28;5073754;28;20029;-64
2022/12/30 07:04:57;;;;;;;2.58;1.38;;;;;;;2.76;100.00;100231.13;5073901;28;20497;-65
2022/12/30 07:07:23;;;;;;;4.15;1.48;;;;;;;2.75;100.00;100221.59;5073458;28;20049;-67
2022/12/30 07:09:48;;;;;;;11.57;5.32;;;;;;;2.76;100.00;100226.72;5073774;28;20067;-66
2022/12/30 07:12:14;;;;;;;8.02;1.83;;;;;;;2.72;100.00;100225.28;5073612;28;20414;-66
2022/12/30 07:14:40;;;;;;;4.82;1.92;;;;;;;2.68;100.00;100224.72;5073561;28;20048;-66
2022/12/30 07:17:05;;;;;;;1.60;0.98;;;;;;;2.69;100.00;100217.66;5073363;28;20115;-66
2022/12/30 07:19:31;;;;;;;7.05;2.40;;;;;;;2.55;100.00;100186.38;5073549;28;20040;-66
2022/12/30 07:21:56;;;;;;;1.83;1.48;;;;;;;2.52;100.00;100205.00;5073300;28;20039;-66
2022/12/30 07:24:21;;;;;;;4.00;2.30;;;;;;;2.58;100.00;100209.78;5073351;28;20041;-66
2022/12/30 07:26:47;;;;;;;5.72;1.98;;;;;;;2.52;100.00;100205.00;5073332;28;20051;-65
2022/12/30 07:29:12;;;;;;;2.90;1.65;;;;;;;2.49;100.00;100200.00;5073062;28;20036;-65
2022/12/30 07:31:39;;;;;;;4.07;2.03;;;;;;;2.51;100.00;100198.91;5073191;28;20040;-65
2022/12/30 07:34:05;;;;;;;4.90;1.90;;;;;;;2.51;100.00;100209.44;5073288;28;20087;-66
2022/12/30 07:36:30;;;;;;;2.58;1.10;;;;;;;2.52;100.00;100205.00;5073213;28;20072;-65
2022/12/30 07:38:57;;;;;;;3.03;1.30;;;;;;;2.52;100.00;100199.75;5072859;28;20028;-66
2022/12/30 07:41:24;;;;;;;4.80;2.03;;;;;;;2.53;100.00;100210.13;5073088;28;20111;-66
2022/12/30 07:43:49;;;;;;;3.22;1.60;;;;;;;2.54;100.00;100210.97;5072469;28;20082;-67
2022/12/30 07:46:15;;;;;;;3.85;1.80;;;;;;;2.52;100.00;100211.09;5072627;28;20044;-65
2022/12/30 07:48:40;;;;;;;1.25;1.15;;;;;;;2.59;100.00;100206.19;5072624;28;20119;-66
2022/12/30 07:51:10;;;;;;;2.00;1.42;;;;;;;2.56;100.00;100209.06;5072861;28;20478;-67
2022/12/30 07:53:36;;;;;;;3.47;1.80;;;;;;;2.60;100.00;100207.84;5072811;28;20123;-67
2022/12/30 07:56:04;;;;;;;6.80;2.05;;;;;;;2.65;100.00;100203.88;5072679;28;20121;-64
2022/12/30 07:58:29;;;;;;;6.20;2.30;;;;;;;2.61;100.00;100201.66;5072470;28;20108;-66
2022/12/30 08:00:55;;;;;;;4.07;2.05;;;;;;;2.65;100.00;100203.88;5072700;28;20032;-67
2022/12/30 08:03:21;;;;;;;2.40;1.50;;;;;;;2.65;100.00;100200.44;5072854;28;20041;-67
2022/12/30 08:05:46;;;;;;;3.15;1.58;;;;;;;2.71;100.00;100190.25;5072572;28;20123;-67
2022/12/30 08:08:11;;;;;;;3.35;1.83;;;;;;;2.85;100.00;100196.19;5072269;28;20040;-67
2022/12/30 08:10:37;;;;;;;3.85;1.38;;;;;;;2.62;100.00;100179.66;5072555;28;20363;-67
2022/12/30 08:13:03;;;;;;;3.85;1.10;;;;;;;2.68;100.00;100187.03;5072589;28;20128;-71
2022/12/30 08:15:29;;;;;;;3.28;1.75;;;;;;;2.74;100.00;100181.28;5071098;28;20043;-71
2022/12/30 08:17:54;;;;;;;2.50;1.05;;;;;;;2.74;100.00;100173.41;5072028;28;20468;-71
2022/12/30 08:20:20;;;;;;;1.85;1.50;;;;;;;2.89;100.00;100166.03;5072287;28;20047;-70
2022/12/30 08:22:45;;;;;;;233.88;73.72;;;;;;;2.97;100.00;100158.34;5072222;28;20127;-71
2022/12/30 08:25:10;;;;;;;47.13;16.33;;;;;;;2.98;100.00;100160.84;5072137;28;20090;-71
2022/12/30 08:27:36;;;;;;;5.80;2.17;;;;;;;2.99;100.00;100146.72;5071831;28;20409;-70
2022/12/30 08:30:02;;;;;;;1.38;1.02;;;;;;;3.04;100.00;100148.97;5072172;28;20075;-71
2022/12/30 08:32:27;;;;;;;1.33;1.13;;;;;;;3.18;100.00;100139.94;5072108;28;20447;-70
2022/12/30 08:34:52;;;;;;;6.72;3.33;;;;;;;3.31;100.00;100139.72;5072040;28;20055;-70
2022/12/30 08:37:18;;;;;;;4.03;2.15;;;;;;;3.43;100.00;100139.53;5072577;28;20075;-69
2022/12/30 08:39:43;;;;;;;3.60;2.03;;;;;;;3.54;100.00;100136.84;5074378;28;20071;-70
2022/12/30 08:42:09;;;;;;;9.38;4.50;;;;;;;3.64;100.00;100136.03;5074698;28;20039;-70
2022/12/30 08:44:34;;;;;;;8.85;4.70;;;;;;;3.68;100.00;100127.75;5074366;28;20048;-70
2022/12/30 08:46:59;;;;;;;6.25;3.28;;;;;;;3.71;100.00;100124.81;5071623;28;20041;-71
2022/12/30 08:49:25;;;;;;;5.47;2.28;;;;;;;3.82;100.00;100121.28;5071735;28;20048;-70
2022/12/30 08:51:50;;;;;;;6.45;2.08;;;;;;;3.94;100.00;100116.75;5071696;28;20048;-69
2022/12/30 08:54:16;;;;;;;5.63;2.78;;;;;;;4.09;100.00;100118.03;5071860;28;20055;-69
2022/12/30 08:56:42;;;;;;;2.35;1.60;;;;;;;4.23;100.00;100119.44;5071370;28;20059;-69
2022/12/30 08:59:09;;;;;;;5.68;2.17;;;;;;;4.40;100.00;100117.97;5071452;28;20036;-70
2022/12/30 09:01:36;;;;;;;8.82;2.10;;;;;;;4.62;100.00;100122.97;5071744;28;20111;-70
2022/12/30 09:04:06;;;;;;;5.13;2.50;;;;;;;4.85;100.00;100118.28;5071553;28;20052;-70
2022/12/30 09:06:32;;;;;;;3.72;2.10;;;;;;;5.08;100.00;100113.50;5071557;28;20436;-70
2022/12/30 09:08:58;;;;;;;9.57;2.85;;;;;;;5.33;100.00;100105.00;5069832;28;20036;-70
2022/12/30 09:11:28;;;;;;;6.82;2.40;;;;;;;5.58;100.00;100115.91;5071580;28;20400;-70
2022/12/30 09:13:54;;;;;;;5.20;2.53;;;;;;;5.75;100.00;100109.06;5071502;28;20547;-71
2022/12/30 09:16:22;;;;;;;3.45;2.03;;;;;;;5.99;100.00;100101.44;5071526;28;20028;-71
2022/12/30 09:18:48;;;;;;;2.83;2.15;;;;;;;6.21;100.00;100097.56;5069937;28;20032;-71
2022/12/30 09:21:13;;;;;;;3.10;1.92;;;;;;;6.53;100.00;100092.63;5071309;28;20035;-72
2022/12/30 09:23:39;;;;;;;5.97;1.85;;;;;;;6.70;100.00;100093.56;5071382;28;20123;-72
2022/12/30 09:26:06;;;;;;;4.07;1.50;;;;;;;7.22;100.00;100087.53;5071419;28;20086;-71
2022/12/30 09:28:32;;;;;;;3.10;1.90;;;;;;;7.55;100.00;100086.72;5071147;28;20040;-72
2022/12/30 09:30:58;;;;;;;4.40;2.35;;;;;;;7.73;100.00;100075.22;5071321;28;20044;-72
2022/12/30 09:33:23;;;;;;;3.05;1.80;;;;;;;8.00;100.00;100080.31;5071418;28;20054;-61
2022/12/30 09:35:48;;;;;;;3.38;1.52;;;;;;;8.34;100.00;100069.63;5071155;28;20040;-60
2022/12/30 09:38:14;;;;;;;1.33;1.10;;;;;;;8.46;100.00;100061.38;5071078;28;20098;-63
2022/12/30 09:41:02;;;;;;;3.05;1.50;;;;;;;8.55;97.82;100060.41;5071401;28;20043;-59
2022/12/30 09:44:10;;;;;;;2.25;1.13;;;;;;;8.56;95.52;100065.53;5070056;28;20063;-72
2022/12/30 09:46:44;;;;;;;2.17;1.10;;;;;;;8.98;96.36;100065.38;5071198;28;20045;-72
2022/12/30 09:49:39;;;;;;;2.17;1.42;;;;;;;9.12;93.80;100060.38;5071016;28;20489;-70
2022/12/30 09:52:24;;;;;;;2.38;1.45;;;;;;;9.40;93.22;100059.00;5069742;28;20060;-71
2022/12/30 09:54:54;;;;;;;2.15;1.42;;;;;;;9.47;92.53;100048.53;5071173;28;20473;-71
2022/12/30 09:57:31;;;;;;;2.67;1.63;;;;;;;9.73;91.65;100050.94;5069553;28;20029;-70
2022/12/30 10:00:04;;;;;;;3.78;1.52;;;;;;;9.98;90.12;100047.16;5071125;28;20040;-70
2022/12/30 10:03:19;;;;;;;2.38;1.20;;;;;;;10.11;89.04;100040.44;5071162;28;20067;-70
2022/12/30 10:05:58;;;;;;;2.25;1.27;;;;;;;10.18;85.76;100028.09;5059755;28;20059;-70
2022/12/30 10:08:42;;;;;;;1.60;1.00;;;;;;;10.58;83.97;100019.84;5072645;28;20438;-69
2022/12/30 10:11:27;;;;;;;4.95;1.35;;;;;;;10.74;85.80;100004.72;5074588;28;20043;-70
2022/12/30 10:14:22;;;;;;;3.17;1.20;;;;;;;10.63;83.69;99990.00;5074911;28;20045;-70
2022/12/30 10:17:09;;;;;;;2.40;1.10;;;;;;;10.78;87.24;99996.19;5074552;28;20111;-70
2022/12/30 10:19:56;;;;;;;3.15;1.20;;;;;;;10.82;81.41;99986.84;5074557;28;20058;-71
2022/12/30 10:22:45;;;;;;;4.80;1.10;;;;;;;11.23;79.39;99983.75;5074543;28;20028;-70
2022/12/30 10:25:24;;;;;;;0.98;0.75;;;;;;;11.04;82.32;99976.28;5074417;28;20119;-70
2022/12/30 10:27:55;;;;;;;0.80;0.80;;;;;;;10.86;83.21;99971.31;5074139;28;20029;-71
2022/12/30 10:30:39;;;;;;;3.97;0.93;;;;;;;11.12;80.39;99970.88;5074461;28;20040;-70
2022/12/30 10:33:07;;;;;;;1.00;0.90;;;;;;;10.98;80.12;99964.53;5074469;28;20037;-70
2022/12/30 10:35:34;;;;;;;2.15;0.98;;;;;;;11.05;79.57;99953.97;5074225;28;20040;-70
2022/12/30 10:38:21;;;;;;;3.22;1.33;;;;;;;11.31;80.45;99961.50;5073905;28;20147;-70
2022/12/30 10:40:53;;;;;;;3.47;1.15;;;;;;;11.60;78.83;99974.78;5073909;28;20033;-71
2022/12/30 10:43:56;;;;;;;2.85;1.45;;;;;;;11.89;79.88;99970.44;5072924;28;20032;-71
2022/12/30 10:46:54;;;;;;;1.17;1.02;;;;;;;11.98;79.19;99979.16;5074090;28;20086;-71
2022/12/30 10:49:34;;;;;;;2.78;1.50;;;;;;;12.14;76.88;99969.09;5073940;28;20029;-70
2022/12/30 10:52:01;;;;;;;2.67;1.65;;;;;;;11.83;80.11;99977.38;5073952;28;20043;-70
2022/12/30 10:54:27;;;;;;;3.60;1.38;;;;;;;11.61;81.62;99973.78;5073988;28;20538;-71
2022/12/30 10:56:52;;;;;;;7.70;1.60;;;;;;;11.99;79.79;99968.28;5073734;28;20029;-70
2022/12/30 10:59:22;;;;;;;1.45;1.00;;;;;;;12.05;74.81;99958.69;5073636;28;20044;-71
2022/12/30 11:01:52;;;;;;;3.75;1.13;;;;;;;11.88;78.70;99947.44;5073939;28;20032;-71
2022/12/30 11:04:34;;;;;;;2.00;1.38;;;;;;;12.27;78.58;99951.53;5073921;28;20081;-71
2022/12/30 11:07:02;;;;;;;3.33;1.08;;;;;;;12.22;73.81;99928.91;5072247;28;20478;-71
2022/12/30 11:09:28;;;;;;;;;;;;;;;12.49;71.38;99918.44;5073848;28;20044;-71
2022/12/30 11:14:42;;;;;;;4.90;2.40;;;;;;;13.27;69.60;99919.16;5073657;28;20072;-72
2022/12/30 11:17:28;;;;;;;3.35;1.92;;;;;;;13.59;66.74;99909.63;5073226;28;20043;-71
2022/12/30 11:19:57;;;;;;;1.80;0.80;;;;;;;13.39;65.45;99904.22;5073487;28;20036;-72
2022/12/30 11:22:23;;;;;;;1.85;0.93;;;;;;;13.06;67.65;99901.34;5073370;28;20481;-72
2022/12/30 11:25:03;;;;;;;1.40;0.90;;;;;;;13.00;67.54;99896.78;5073312;28;20086;-71
2022/12/30 11:27:42;;;;;;;1.85;1.00;;;;;;;12.81;68.67;99901.00;5073001;28;20524;-72
2022/12/30 11:30:24;;;;;;;3.45;1.83;;;;;;;12.72;69.87;99889.63;5073399;28;20586;-71
2022/12/30 11:32:50;;;;;;;4.22;1.10;;;;;;;12.49;70.96;99886.38;5073702;28;20039;-71
2022/12/30 11:35:48;;;;;;;1.65;0.90;;;;;;;12.29;70.71;99875.53;5073194;28;20087;-71
2022/12/30 11:38:32;;;;;;;2.60;1.30;;;;;;;11.94;72.54;99870.13;5072887;28;20024;-71
2022/12/30 11:41:18;;;;;;;4.70;1.13;;;;;;;11.67;75.71;99868.16;5073054;28;20032;-71
2022/12/30 11:44:01;;;;;;;3.13;1.30;;;;;;;11.46;80.25;99871.63;5073048;28;20127;-71
2022/12/30 11:46:37;;;;;;;2.38;0.95;;;;;;;11.23;79.36;99874.44;5072978;28;20056;-71
2022/12/30 11:49:16;;;;;;;2.67;1.20;;;;;;;11.23;80.34;99863.78;5072660;28;20115;-71
2022/12/30 11:51:45;;;;;;;2.38;1.05;;;;;;;11.09;82.16;99864.63;5071417;28;20048;-70
2022/12/30 11:54:11;;;;;;;2.53;0.90;;;;;;;11.02;83.52;99859.22;5072790;28;20374;-71
2022/12/30 11:56:38;;;;;;;2.03;0.80;;;;;;;10.93;84.51;99862.16;5072646;28;20031;-71
2022/12/30 11:59:13;;;;;;;1.63;1.27;;;;;;;10.86;84.58;99846.06;5072437;28;20036;-71
2022/12/30 12:01:44;;;;;;;2.00;1.13;;;;;;;10.81;85.33;99840.47;5072637;28;20036;-71
2022/12/30 12:04:31;;;;;;;2.58;1.23;;;;;;;10.64;85.82;99841.69;5072642;28;20056;-71
2022/12/30 12:06:56;;;;;;;3.25;1.45;;;;;;;10.58;86.76;99837.91;5072421;28;20032;-70
2022/12/30 12:09:40;;;;;;;6.47;1.65;;;;;;;10.57;88.76;99830.94;5072242;28;20047;-71
2022/12/30 12:12:16;;;;;;;4.30;1.30;;;;;;;10.49;87.96;99831.81;5071080;28;20043;-71
2022/12/30 12:15:13;;;;;;;1.95;1.17;;;;;;;10.50;88.86;99822.03;5072426;28;20044;-71
2022/12/30 12:17:45;;;;;;;;;;;;;;;10.34;88.74;99825.66;5072581;28;20064;-71
2022/12/30 12:20:27;;;;;;;2.75;1.05;;;;;;;10.38;89.12;99826.97;5072303;28;20007;-71
2022/12/30 12:23:31;;;;;;;5.60;1.35;;;;;;;10.44;90.32;99826.22;5072251;28;20036;-71
2022/12/30 12:26:25;;;;;;;5.55;1.42;;;;;;;10.41;90.50;99815.09;5071728;28;20044;-72
2022/12/30 12:28:53;;;;;;;2.30;1.35;;;;;;;10.31;89.34;99800.25;5070235;28;20114;-72
2022/12/30 12:31:36;;;;;;;4.03;1.42;;;;;;;10.33;88.64;99797.38;5071517;28;20036;-72
2022/12/30 12:34:29;;;;;;;2.15;1.20;;;;;;;10.37;88.21;99812.00;5072320;28;20047;-72
2022/12/30 12:37:11;;;;;;;3.90;1.90;;;;;;;10.39;88.55;99807.31;5071820;28;20086;-69
2022/12/30 12:39:58;;;;;;;3.53;1.55;;;;;;;10.42;87.61;99804.25;5070837;28;20355;-70
2022/12/30 12:42:30;;;;;;;2.03;1.38;;;;;;;10.49;89.77;99796.38;5071961;28;20035;-70
2022/12/30 12:45:06;;;;;;;4.80;1.73;;;;;;;10.55;86.26;99795.63;5071954;28;20041;-70
2022/12/30 12:47:40;;;;;;;4.78;1.95;;;;;;;10.75;85.68;99790.56;5102715;22;20140;-71
2022/12/30 12:50:20;;;;;;;5.80;2.45;;;;;;;10.70;85.47;99769.84;5071848;28;20040;-70
2022/12/30 12:53:13;;;;;;;5.15;1.48;;;;;;;10.91;83.92;99762.91;5071657;28;20032;-70
2022/12/30 12:56:00;;;;;;;4.30;1.45;;;;;;;11.17;82.76;99754.41;5071704;28;20040;-70
2022/12/30 12:58:36;;;;;;;2.58;1.52;;;;;;;11.07;82.10;99744.84;5071701;28;20047;-70
2022/12/30 13:01:27;;;;;;;4.05;2.13;;;;;;;11.23;82.23;99735.81;5072844;28;20036;-70
2022/12/30 13:04:38;;;;;;;4.80;1.85;;;;;;;11.31;82.75;99733.00;5071398;28;20115;-70
2022/12/30 13:07:17;;;;;;;2.45;1.38;;;;;;;11.28;83.16;99724.53;5051410;28;20029;-70
2022/12/30 13:10:07;;;;;;;3.63;1.52;;;;;;;11.17;82.73;99715.22;5051705;28;20033;-70
2022/12/30 13:12:41;;;;;;;5.60;1.35;;;;;;;11.12;84.26;99713.13;5052895;28;20032;-70
2022/12/30 13:15:21;;;;;;;7.45;1.38;;;;;;;10.97;83.81;99708.88;5055975;28;20032;-70
2022/12/30 13:17:48;;;;;;;3.58;1.60;;;;;;;10.96;84.94;99704.56;5071394;28;20536;-69
2022/12/30 13:20:17;;;;;;;2.58;1.63;;;;;;;10.90;85.19;99700.81;5071516;28;20032;-69
2022/12/30 13:22:44;;;;;;;3.13;1.60;;;;;;;10.88;85.41;99695.66;5071406;28;20545;-70
2022/12/30 13:25:19;;;;;;;1.95;1.33;;;;;;;10.77;86.09;99682.00;5053228;28;20037;-69
2022/12/30 13:27:48;;;;;;;3.38;1.40;;;;;;;10.74;87.10;99685.03;5071161;28;20036;-70
2022/12/30 13:30:16;;;;;;;4.15;1.13;;;;;;;10.73;87.27;99672.75;5071273;28;20089;-69
2022/12/30 13:33:24;;;;;;;2.75;1.58;;;;;;;10.59;88.87;99677.09;5071247;28;20056;-69
2022/12/30 13:36:03;;;;;;;5.13;1.42;;;;;;;10.54;88.85;99659.00;5071223;28;20047;-70
2022/12/30 13:39:11;;;;;;;2.88;1.20;;;;;;;10.54;91.05;99666.16;5066760;28;20064;-70
2022/12/30 13:41:54;;;;;;;3.25;1.20;;;;;;;10.51;90.92;99654.06;5016545;28;20037;-69
2022/12/30 13:44:21;;;;;;;4.15;1.65;;;;;;;10.45;93.89;99654.81;5054925;28;20044;-69
2022/12/30 13:46:49;;;;;;;3.58;1.80;;;;;;;10.29;96.67;99655.81;5055030;28;20481;-70
2022/12/30 13:49:20;;;;;;;;;;;;;;;10.30;95.34;99651.31;5055412;28;20049;-71
2022/12/30 13:52:17;;;;;;;3.63;1.55;;;;;;;10.23;97.94;99648.56;5055031;28;19976;-71
2022/12/30 13:54:49;;;;;;;;;;;;;;;10.24;97.91;99660.06;5055582;28;20053;-71
2022/12/30 13:57:34;;;;;;;4.65;2.20;;;;;;;10.22;98.16;99646.06;5054634;28;19913;-71
2022/12/30 14:00:23;;;;;;;4.70;2.80;;;;;;;10.18;98.99;99647.47;5054945;28;20029;-70
2022/12/30 14:02:58;;;;;;;2.33;1.60;;;;;;;10.04;100.00;99643.78;5058795;28;20600;-71
2022/12/30 14:05:36;;;;;;;3.40;2.08;;;;;;;10.00;100.00;99639.88;5074724;28;20090;-71
2022/12/30 14:08:13;;;;;;;4.75;2.92;;;;;;;9.98;100.00;99639.22;5074700;28;20039;-69
2022/12/30 14:10:42;;;;;;;3.20;2.47;;;;;;;9.87;100.00;99632.53;5074819;28;20043;-71
2022/12/30 14:13:11;;;;;;;7.97;2.67;;;;;;;9.80;100.00;99628.94;5050274;28;20029;-71
2022/12/30 14:15:42;;;;;;;2.85;1.90;;;;;;;9.76;100.00;99641.78;5070111;28;20486;-71
2022/12/30 14:18:46;;;;;;;6.95;2.40;;;;;;;9.71;100.00;99635.34;5066817;28;20064;-70
2022/12/30 14:21:14;;;;;;;4.13;2.08;;;;;;;9.71;100.00;99630.03;5032745;28;20527;-71
2022/12/30 14:23:45;;;;;;;;;;;;;;;9.69;100.00;99618.75;5074934;28;20044;-71
2022/12/30 14:26:17;;;;;;;5.45;2.20;;;;;;;9.61;100.00;99621.50;5076560;28;20008;-71
2022/12/30 14:28:45;;;;;;;3.80;2.33;;;;;;;9.60;100.00;99615.38;5083780;28;20029;-71
2022/12/30 14:31:43;;;;;;;5.15;2.40;;;;;;;9.58;100.00;99622.69;5043852;28;20066;-71
2022/12/30 14:34:37;;;;;;;4.40;2.25;;;;;;;9.57;100.00;99615.72;5081033;28;20119;-70
2022/12/30 14:37:08;;;;;;;2.60;2.20;;;;;;;9.49;100.00;99607.81;5079078;28;20036;-71
2022/12/30 14:39:34;;;;;;;5.15;3.17;;;;;;;9.48;100.00;99614.16;5082477;28;20032;-71
2022/12/30 14:42:03;;;;;;;5.85;2.53;;;;;;;9.45;100.00;99607.38;5086557;28;20054;-71
2022/12/30 14:44:31;;;;;;;7.15;3.50;;;;;;;9.37;100.00;99596.81;5083145;28;20063;-71
2022/12/30 14:47:02;;;;;;;6.65;3.25;;;;;;;9.40;100.00;99599.13;5083317;28;20397;-71
2022/12/30 14:49:33;;;;;;;8.30;2.97;;;;;;;9.40;100.00;99592.97;5086402;28;20050;-70
2022/12/30 14:52:08;;;;;;;5.43;2.67;;;;;;;9.33;100.00;99595.53;5082764;28;20187;-70
2022/12/30 14:54:36;;;;;;;6.82;3.25;;;;;;;9.33;100.00;99598.19;5060344;28;20032;-70
2022/12/30 14:57:13;;;;;;;5.25;2.83;;;;;;;9.32;100.00;99591.19;5085370;28;20032;-71
2022/12/30 14:59:50;;;;;;;10.02;3.38;;;;;;;9.25;100.00;99592.94;5083911;28;20040;-70
2022/12/30 15:02:25;;;;;;;13.05;3.55;;;;;;;9.28;100.00;99591.75;5081303;28;20028;-71
2022/12/30 15:04:53;;;;;;;7.68;2.88;;;;;;;9.20;100.00;99596.16;5083789;28;20086;-71
2022/12/30 15:07:24;;;;;;;3.67;2.60;;;;;;;9.21;100.00;99595.13;5083105;28;20032;-71
2022/12/30 15:09:51;;;;;;;9.65;3.15;;;;;;;9.21;100.00;99581.84;5073962;28;20075;-60
2022/12/30 15:12:17;;;;;;;5.57;2.77;;;;;;;9.16;100.00;99576.25;5073739;28;20037;-56
2022/12/30 15:14:48;;;;;;;5.25;2.97;;;;;;;9.22;100.00;99580.84;5074076;28;20374;-60
2022/12/30 15:17:14;;;;;;;5.53;2.33;;;;;;;9.15;100.00;99579.91;5073269;28;20489;-69
2022/12/30 15:19:40;;;;;;;5.93;2.90;;;;;;;9.00;100.00;99575.56;5082445;28;20031;-71
2022/12/30 15:22:14;;;;;;;7.55;2.78;;;;;;;8.90;100.00;99579.28;5093849;28;20060;-71
2022/12/30 15:24:43;;;;;;;9.57;3.50;;;;;;;8.97;100.00;99574.09;5093657;28;20032;-70
2022/12/30 15:27:19;;;;;;;4.43;2.63;;;;;;;8.88;100.00;99580.50;5075057;28;20180;-69
2022/12/30 15:29:46;;;;;;;10.23;3.65;;;;;;;8.93;100.00;99572.78;5093506;28;20096;-68
2022/12/30 15:32:29;;;;;;;5.10;3.13;;;;;;;8.89;100.00;99587.44;5093359;28;20032;-69
2022/12/30 15:35:07;;;;;;;4.03;2.70;;;;;;;8.84;100.00;99577.34;5093426;28;20120;-69
2022/12/30 15:37:33;;;;;;;9.38;3.88;;;;;;;8.87;100.00;99587.63;5092962;28;20510;-70
2022/12/30 15:40:03;;;;;;;5.80;3.08;;;;;;;8.85;100.00;99575.50;5093345;28;20035;-70
2022/12/30 15:43:02;;;;;;;5.18;3.10;;;;;;;8.81;100.00;99584.88;5075740;28;20131;-70
2022/12/30 15:45:40;;;;;;;5.30;2.53;;;;;;;8.81;100.00;99583.03;5078134;28;20404;-70
2022/12/30 15:48:39;;;;;;;3.58;2.35;;;;;;;8.84;100.00;99580.00;5074742;28;20042;-70
2022/12/30 15:51:15;;;;;;;13.65;4.80;;;;;;;8.87;100.00;99577.00;5093248;28;20050;-70
2022/12/30 15:53:52;;;;;;;5.60;2.60;;;;;;;8.77;100.00;99568.44;5093363;28;20044;-70
2022/12/30 15:56:20;;;;;;;3.80;2.35;;;;;;;8.84;100.00;99560.59;5093486;28;20047;-70
2022/12/30 15:58:52;;;;;;;5.18;2.92;;;;;;;8.73;100.00;99551.19;5092668;28;20036;-70
2022/12/30 16:01:20;;;;;;;4.03;2.28;;;;;;;8.78;100.00;99540.88;5092696;28;20034;-70
2022/12/30 16:04:08;;;;;;;4.60;2.83;;;;;;;8.78;100.00;99546.19;5092899;28;20102;-70
2022/12/30 16:06:42;;;;;;;5.20;2.20;;;;;;;8.78;100.00;99550.69;5073795;28;20054;-70
2022/12/30 16:09:39;;;;;;;3.30;2.17;;;;;;;8.72;100.00;99551.38;5092476;28;20048;-70
2022/12/30 16:12:21;;;;;;;7.05;2.72;;;;;;;8.77;100.00;99538.41;5092780;28;20043;-70
2022/12/30 16:15:04;;;;;;;6.20;3.00;;;;;;;8.75;100.00;99533.28;5092889;28;20092;-70
2022/12/30 16:17:34;;;;;;;6.57;2.80;;;;;;;8.77;100.00;99543.72;5092234;28;20032;-69
2022/12/30 16:20:00;;;;;;;6.65;3.65;;;;;;;8.74;100.00;99542.25;5092616;28;20036;-71
2022/12/30 16:22:28;;;;;;;4.43;2.90;;;;;;;8.67;100.00;99549.25;5093156;28;20028;-69
2022/12/30 16:24:58;;;;;;;7.53;3.53;;;;;;;8.72;100.00;99554.03;5074662;28;20107;-70
2022/12/30 16:27:24;;;;;;;10.30;3.65;;;;;;;8.73;100.00;99553.03;5092216;28;20063;-69
2022/12/30 16:29:51;;;;;;;7.72;3.28;;;;;;;8.78;100.00;99556.81;5092577;28;20035;-70
2022/12/30 16:32:27;;;;;;;6.28;3.13;;;;;;;8.79;100.00;99549.66;5092317;28;20125;-68
2022/12/30 16:34:53;;;;;;;9.85;3.97;;;;;;;8.80;100.00;99549.50;5092312;28;20424;-67
2022/12/30 16:37:29;;;;;;;7.80;3.88;;;;;;;8.80;100.00;99546.84;5091766;28;20043;-67
2022/12/30 16:40:03;;;;;;;6.10;3.78;;;;;;;8.83;100.00;99548.31;5092314;28;20470;-68
2022/12/30 16:42:29;;;;;;;8.75;3.60;;;;;;;8.79;100.00;99541.69;5092182;28;20433;-65
2022/12/30 16:44:55;;;;;;;9.35;4.25;;;;;;;8.81;100.00;99537.88;5092023;28;20068;-68
2022/12/30 16:47:20;;;;;;;7.70;3.85;;;;;;;8.85;100.00;99530.38;5091708;28;20040;-67
2022/12/30 16:49:45;;;;;;;7.38;3.70;;;;;;;8.88;100.00;99528.19;5092002;28;20044;-66
2022/12/30 16:52:20;;;;;;;8.95;4.22;;;;;;;8.87;100.00;99534.50;5091961;28;20040;-67
2022/12/30 16:54:46;;;;;;;12.10;5.72;;;;;;;8.90;100.00;99534.13;5091949;28;20093;-68
2022/12/30 16:57:14;;;;;;;12.15;6.38;;;;;;;8.91;100.00;99529.66;5091551;28;20520;-68
2022/12/30 16:59:39;;;;;;;10.30;5.88;;;;;;;8.93;100.00;99528.47;5091913;28;20127;-67
2022/12/30 17:02:15;;;;;;;19.67;7.60;;;;;;;8.97;100.00;99531.59;5091870;28;20027;-67
2022/12/30 17:04:40;;;;;;;15.60;8.95;;;;;;;8.97;100.00;99537.72;5091970;28;20040;-68
2022/12/30 17:07:12;;;;;;;14.27;6.57;;;;;;;8.99;100.00;99526.91;5091631;28;20447;-69
2022/12/30 17:12:21;;;;;;;10.75;6.22;;;;;;;9.02;100.00;99536.38;5091716;28;20119;-69
2022/12/30 17:14:47;;;;;;;7.10;4.72;;;;;;;8.97;100.00;99539.56;5091770;28;20550;-65
2022/12/30 17:17:15;;;;;;;10.40;4.97;;;;;;;8.97;100.00;99544.88;5091101;28;20036;-67
2022/12/30 17:19:41;;;;;;;18.02;4.93;;;;;;;9.12;100.00;99547.53;5091773;28;20203;-64
2022/12/30 17:22:07;;;;;;;9.63;4.20;;;;;;;9.25;100.00;99534.47;5091675;28;20119;-67
2022/12/30 17:24:33;;;;;;;6.35;2.63;;;;;;;9.50;100.00;99551.81;5091803;28;20400;-67
2022/12/30 17:26:58;;;;;;;6.80;2.85;;;;;;;9.65;100.00;99540.34;5091522;28;20032;-68